Time;durP1;ratioP1;P1;durP2;ratioP2;P2;SDS_P1;SDS_P2;PMS_P1;PMS_P2;Temp;Humidity;BMP_temperature;BMP_pressure;BME280_temperature;BME280_humidity;BME280_pressure;Samples;Min_cycle;Max_cycle;Signal;HPM_P1;HPM_P2
2023/06/16 00:01:23;;;;;;;6.35;3.50;;;;;;;;;;5105085;28;20048;-67
2023/06/16 00:03:51;;;;;;;5.00;3.50;;;;;;;;;;5104034;28;20074;-67
2023/06/16 00:06:19;;;;;;;5.00;3.70;;;;;;;;;;5112088;28;20134;-67
2023/06/16 00:08:47;;;;;;;4.25;3.03;;;;;;;;;;5084075;28;20039;-67
2023/06/16 00:11:15;;;;;;;4.57;3.22;;;;;;;;;;5112452;28;20070;-67
2023/06/16 00:13:42;;;;;;;5.97;3.42;;;;;;;;;;5106026;28;20043;-67
2023/06/16 00:16:10;;;;;;;4.93;3.20;;;;;;;;;;5106848;28;20052;-67
2023/06/16 00:18:43;;;;;;;6.93;2.72;;;;;;;;;;5107936;28;20096;-67
2023/06/16 00:21:10;;;;;;;3.80;2.83;;;;;;;;;;5105121;28;20048;-67
2023/06/16 00:23:37;;;;;;;4.63;3.22;;;;;;;;;;5098896;28;20052;-67
2023/06/16 00:26:05;;;;;;;4.55;2.80;;;;;;;;;;5102472;28;20483;-67
2023/06/16 00:28:32;;;;;;;4.47;2.97;;;;;;;;;;5106739;28;20044;-67
2023/06/16 00:30:59;;;;;;;6.53;3.22;;;;;;;;;;5109943;28;20047;-67
2023/06/16 00:33:27;;;;;;;5.10;2.95;;;;;;;;;;5104779;28;20044;-67
2023/06/16 00:35:55;;;;;;;4.55;2.95;;;;;;;;;;5106318;28;20576;-67
2023/06/16 00:38:22;;;;;;;4.38;3.08;;;;;;;;;;5108392;28;20053;-67
2023/06/16 00:40:50;;;;;;;4.32;3.03;;;;;;;;;;5103377;27;20144;-67
2023/06/16 00:43:17;;;;;;;3.92;2.88;;;;;;;;;;5108308;27;20059;-67
2023/06/16 00:45:44;;;;;;;4.68;3.05;;;;;;;;;;5109266;28;20486;-67
2023/06/16 00:48:12;;;;;;;3.55;2.78;;;;;;;;;;5102399;28;20048;-67
2023/06/16 00:50:39;;;;;;;4.97;3.28;;;;;;;;;;5102744;28;20487;-67
2023/06/16 00:53:08;;;;;;;5.10;3.10;;;;;;;;;;5106096;28;20127;-66
2023/06/16 00:55:35;;;;;;;3.65;2.90;;;;;;;;;;5111054;28;20055;-67
2023/06/16 00:58:03;;;;;;;3.78;3.13;;;;;;;;;;5101094;28;21829;-67
2023/06/16 01:00:32;;;;;;;5.82;3.83;;;;;;;;;;5105562;28;20052;-66
2023/06/16 01:03:02;;;;;;;4.80;3.30;;;;;;;;;;5088104;28;20051;-67
2023/06/16 01:05:29;;;;;;;4.88;3.90;;;;;;;;;;5111711;28;20088;-67
2023/06/16 01:08:03;;;;;;;4.80;3.42;;;;;;;;;;5112516;27;20036;-67
2023/06/16 01:10:34;;;;;;;6.68;3.83;;;;;;;;;;5103633;28;20055;-66
2023/06/16 01:13:07;;;;;;;5.25;3.88;;;;;;;;;;5102337;27;20067;-66
2023/06/16 01:15:35;;;;;;;5.45;3.75;;;;;;;;;;5087080;28;20070;-66
2023/06/16 01:18:03;;;;;;;4.47;3.55;;;;;;;;;;5103267;28;20051;-66
2023/06/16 01:20:37;;;;;;;6.53;3.58;;;;;;;;;;5108073;28;20044;-66
2023/06/16 01:23:10;;;;;;;5.00;3.53;;;;;;;;;;5107806;28;20040;-66
2023/06/16 01:25:39;;;;;;;7.28;3.67;;;;;;;;;;5109464;28;20463;-66
2023/06/16 01:28:08;;;;;;;6.65;3.95;;;;;;;;;;5103294;28;20666;-66
2023/06/16 01:30:36;;;;;;;4.63;3.40;;;;;;;;;;5108102;28;20047;-66
2023/06/16 01:33:04;;;;;;;5.68;3.22;;;;;;;;;;5082441;28;20138;-66
2023/06/16 01:35:32;;;;;;;5.20;3.55;;;;;;;;;;5111815;28;20053;-66
2023/06/16 01:38:00;;;;;;;5.82;3.90;;;;;;;;;;5108608;28;20051;-66
2023/06/16 01:40:28;;;;;;;4.53;3.45;;;;;;;;;;5110695;28;20406;-66
2023/06/16 01:42:57;;;;;;;5.60;4.13;;;;;;;;;;5104385;28;20052;-66
2023/06/16 01:45:24;;;;;;;5.63;4.10;;;;;;;;;;5108048;28;20047;-66
2023/06/16 01:47:52;;;;;;;4.97;3.65;;;;;;;;;;5105225;28;20043;-66
2023/06/16 01:50:19;;;;;;;4.43;3.33;;;;;;;;;;5108805;28;20062;-66
2023/06/16 01:52:47;;;;;;;5.53;3.90;;;;;;;;;;5106633;28;20048;-66
2023/06/16 01:55:14;;;;;;;5.75;4.03;;;;;;;;;;5105177;28;20494;-66
2023/06/16 01:57:41;;;;;;;6.00;4.30;;;;;;;;;;5111520;28;20036;-66
2023/06/16 02:00:13;;;;;;;6.03;4.00;;;;;;;;;;5110979;28;20043;-66
2023/06/16 02:02:44;;;;;;;4.53;3.60;;;;;;;;;;5102809;28;20166;-66
2023/06/16 02:05:12;;;;;;;5.03;3.78;;;;;;;;;;5108287;28;20054;-66
2023/06/16 02:07:41;;;;;;;7.57;4.28;;;;;;;;;;5113984;27;20065;-66
2023/06/16 02:10:10;;;;;;;6.10;4.65;;;;;;;;;;5105449;28;20495;-66
2023/06/16 02:12:37;;;;;;;5.65;4.10;;;;;;;;;;5103263;28;20040;-66
2023/06/16 02:15:05;;;;;;;6.07;4.00;;;;;;;;;;5108900;28;20051;-66
2023/06/16 02:17:34;;;;;;;5.97;4.45;;;;;;;;;;5110396;28;20056;-66
2023/06/16 02:20:04;;;;;;;8.80;4.30;;;;;;;;;;5106036;28;20058;-66
2023/06/16 02:22:31;;;;;;;5.90;4.55;;;;;;;;;;5101667;28;20040;-66
2023/06/16 02:25:00;;;;;;;6.10;4.70;;;;;;;;;;5105938;28;20055;-66
2023/06/16 02:27:27;;;;;;;5.32;4.10;;;;;;;;;;5106680;28;20065;-66
2023/06/16 02:29:54;;;;;;;6.10;4.38;;;;;;;;;;5108091;28;20100;-66
2023/06/16 02:32:22;;;;;;;5.40;4.10;;;;;;;;;;5106155;28;20039;-66
2023/06/16 02:34:52;;;;;;;6.78;4.43;;;;;;;;;;5102071;28;20112;-66
2023/06/16 02:37:20;;;;;;;5.50;4.07;;;;;;;;;;5100638;27;20143;-66
2023/06/16 02:39:47;;;;;;;7.10;4.25;;;;;;;;;;5104576;28;20522;-66
2023/06/16 02:42:15;;;;;;;5.85;4.40;;;;;;;;;;5101608;28;20486;-66
2023/06/16 02:44:42;;;;;;;6.38;4.53;;;;;;;;;;5104825;28;20062;-66
2023/06/16 02:47:09;;;;;;;6.30;4.57;;;;;;;;;;5107752;28;20063;-66
2023/06/16 02:49:42;;;;;;;7.13;4.43;;;;;;;;;;5108658;28;20059;-66
2023/06/16 02:52:11;;;;;;;6.60;4.45;;;;;;;;;;5100946;28;20055;-66
2023/06/16 02:54:39;;;;;;;7.25;4.63;;;;;;;;;;5107044;28;20514;-66
2023/06/16 02:57:07;;;;;;;6.00;4.75;;;;;;;;;;5109694;28;20058;-66
2023/06/16 02:59:34;;;;;;;6.50;4.82;;;;;;;;;;5109272;28;20079;-66
2023/06/16 03:02:01;;;;;;;6.63;4.75;;;;;;;;;;5085686;28;20088;-66
2023/06/16 03:04:29;;;;;;;5.95;4.43;;;;;;;;;;5099918;28;20522;-66
2023/06/16 03:06:58;;;;;;;6.63;4.43;;;;;;;;;;5112038;28;20043;-66
2023/06/16 03:09:27;;;;;;;6.78;4.68;;;;;;;;;;5107078;28;20054;-66
2023/06/16 03:11:55;;;;;;;5.88;4.72;;;;;;;;;;5106920;28;20076;-66
2023/06/16 03:14:22;;;;;;;6.55;4.85;;;;;;;;;;5102872;28;20039;-66
2023/06/16 03:16:50;;;;;;;7.00;5.30;;;;;;;;;;5100465;28;20051;-66
2023/06/16 03:19:18;;;;;;;8.00;5.65;;;;;;;;;;5105211;28;20044;-66
2023/06/16 03:21:45;;;;;;;6.78;5.18;;;;;;;;;;5097659;28;20037;-66
2023/06/16 03:24:16;;;;;;;7.18;5.05;;;;;;;;;;5082395;28;20139;-66
2023/06/16 03:26:45;;;;;;;7.63;5.60;;;;;;;;;;5105208;28;20121;-66
2023/06/16 03:29:13;;;;;;;7.40;5.45;;;;;;;;;;5109081;28;20104;-66
2023/06/16 03:31:40;;;;;;;9.43;6.28;;;;;;;;;;5101829;28;20086;-66
2023/06/16 03:34:07;;;;;;;8.90;6.47;;;;;;;;;;5103445;28;20078;-66
2023/06/16 03:36:36;;;;;;;9.95;6.97;;;;;;;;;;5105879;28;20380;-66
2023/06/16 03:39:05;;;;;;;9.43;5.90;;;;;;;;;;5104521;27;20040;-66
2023/06/16 03:41:32;;;;;;;9.27;6.88;;;;;;;;;;5111502;27;20499;-66
2023/06/16 03:44:01;;;;;;;9.93;7.18;;;;;;;;;;5108679;28;20062;-66
2023/06/16 03:46:30;;;;;;;8.93;6.75;;;;;;;;;;5104130;28;20052;-66
2023/06/16 03:48:58;;;;;;;10.35;7.40;;;;;;;;;;5107397;28;20050;-66
2023/06/16 03:51:25;;;;;;;10.63;6.75;;;;;;;;;;5109026;28;20112;-67
2023/06/16 03:53:52;;;;;;;10.68;7.72;;;;;;;;;;5111885;28;20126;-66
2023/06/16 03:56:20;;;;;;;10.63;6.65;;;;;;;;;;5110301;28;20040;-66
2023/06/16 03:58:48;;;;;;;10.73;7.45;;;;;;;;;;5107063;28;20047;-66
2023/06/16 04:01:20;;;;;;;11.65;7.72;;;;;;;;;;5108601;28;20075;-66
2023/06/16 04:03:49;;;;;;;8.90;6.80;;;;;;;;;;5109886;28;20050;-66
2023/06/16 04:06:16;;;;;;;10.80;7.55;;;;;;;;;;5092912;28;20065;-66
2023/06/16 04:08:44;;;;;;;9.75;7.20;;;;;;;;;;5108079;27;20451;-66
2023/06/16 04:11:12;;;;;;;10.77;7.22;;;;;;;;;;5098605;28;20059;-66
2023/06/16 04:13:39;;;;;;;9.20;6.68;;;;;;;;;;5103487;28;20074;-66
2023/06/16 04:16:07;;;;;;;9.38;6.85;;;;;;;;;;5108295;28;20047;-66
2023/06/16 04:18:36;;;;;;;8.85;6.95;;;;;;;;;;5105050;28;20035;-66
2023/06/16 04:21:03;;;;;;;9.90;6.90;;;;;;;;;;5087534;28;20052;-66
2023/06/16 04:23:30;;;;;;;10.35;7.80;;;;;;;;;;5103729;28;20054;-66
2023/06/16 04:25:58;;;;;;;10.43;7.65;;;;;;;;;;5105566;28;20063;-66
2023/06/16 04:28:26;;;;;;;10.10;7.25;;;;;;;;;;5107065;28;20520;-66
2023/06/16 04:30:56;;;;;;;9.85;7.43;;;;;;;;;;5111677;28;20055;-66
2023/06/16 04:33:24;;;;;;;11.48;7.60;;;;;;;;;;5103847;28;20063;-66
2023/06/16 04:35:52;;;;;;;13.43;8.60;;;;;;;;;;5112424;27;20075;-66
2023/06/16 04:38:20;;;;;;;10.60;7.60;;;;;;;;;;5100580;28;20048;-66
2023/06/16 04:40:48;;;;;;;10.32;7.35;;;;;;;;;;5105636;28;20052;-66
2023/06/16 04:43:15;;;;;;;9.23;6.97;;;;;;;;;;5109791;28;20056;-66
2023/06/16 04:45:43;;;;;;;14.20;8.57;;;;;;;;;;5110862;28;20047;-66
2023/06/16 04:48:10;;;;;;;9.50;7.15;;;;;;;;;;5107240;28;20095;-66
2023/06/16 04:50:37;;;;;;;10.43;7.32;;;;;;;;;;5105239;28;20048;-66
2023/06/16 04:53:06;;;;;;;11.23;7.72;;;;;;;;;;5106352;28;20383;-66
2023/06/16 04:55:33;;;;;;;7.45;6.10;;;;;;;;;;5099177;28;20052;-66
2023/06/16 04:58:00;;;;;;;12.07;7.18;;;;;;;;;;5100637;28;20059;-66
2023/06/16 05:00:29;;;;;;;10.30;6.88;;;;;;;;;;5108431;28;20387;-66
2023/06/16 05:02:57;;;;;;;9.18;6.18;;;;;;;;;;5106819;28;20047;-66
2023/06/16 05:05:25;;;;;;;10.90;7.75;;;;;;;;;;5106973;27;20051;-66
2023/06/16 05:07:52;;;;;;;11.02;7.28;;;;;;;;;;5105429;27;20043;-66
2023/06/16 05:10:21;;;;;;;8.63;6.28;;;;;;;;;;5105878;28;20043;-66
2023/06/16 05:12:48;;;;;;;9.45;7.00;;;;;;;;;;5095204;27;20174;-66
2023/06/16 05:15:16;;;;;;;10.25;6.90;;;;;;;;;;5102087;27;20170;-67
2023/06/16 05:17:43;;;;;;;9.52;6.15;;;;;;;;;;5107763;28;20059;-66
2023/06/16 05:20:11;;;;;;;7.75;6.10;;;;;;;;;;5106148;28;20058;-67
2023/06/16 05:22:38;;;;;;;10.40;6.95;;;;;;;;;;5106677;28;20082;-67
2023/06/16 05:25:06;;;;;;;8.63;5.97;;;;;;;;;;5099004;28;20398;-67
2023/06/16 05:27:34;;;;;;;8.73;6.35;;;;;;;;;;5110397;27;20100;-66
2023/06/16 05:30:02;;;;;;;9.32;5.93;;;;;;;;;;5101326;28;20058;-66
2023/06/16 05:32:29;;;;;;;8.75;6.55;;;;;;;;;;5097591;28;20630;-66
2023/06/16 05:34:57;;;;;;;9.55;5.65;;;;;;;;;;5100572;28;20047;-66
2023/06/16 05:37:25;;;;;;;8.15;5.97;;;;;;;;;;5108796;27;20043;-66
2023/06/16 05:39:52;;;;;;;8.20;5.07;;;;;;;;;;5110481;28;20074;-66
2023/06/16 05:42:19;;;;;;;7.03;5.07;;;;;;;;;;5108846;28;20046;-66
2023/06/16 05:44:48;;;;;;;10.18;5.82;;;;;;;;;;5110819;28;20067;-66
2023/06/16 05:47:15;;;;;;;10.57;5.47;;;;;;;;;;5105717;28;20048;-66
2023/06/16 05:49:43;;;;;;;8.20;5.97;;;;;;;;;;5097945;27;20055;-66
2023/06/16 05:52:10;;;;;;;8.70;5.75;;;;;;;;;;5110667;28;20457;-66
2023/06/16 05:54:37;;;;;;;6.63;5.28;;;;;;;;;;5108313;28;20063;-66
2023/06/16 05:57:05;;;;;;;7.72;5.15;;;;;;;;;;5111053;28;20135;-66
2023/06/16 05:59:32;;;;;;;7.72;5.05;;;;;;;;;;5110054;28;20446;-66
2023/06/16 06:02:00;;;;;;;8.10;5.35;;;;;;;;;;5110224;28;20479;-66
2023/06/16 06:04:28;;;;;;;6.20;4.82;;;;;;;;;;5110530;28;20044;-66
2023/06/16 06:06:56;;;;;;;7.57;5.47;;;;;;;;;;5105049;27;20039;-66
2023/06/16 06:09:23;;;;;;;6.28;4.35;;;;;;;;;;5098662;28;20051;-67
2023/06/16 06:11:51;;;;;;;7.25;4.95;;;;;;;;;;5107033;28;20058;-66
2023/06/16 06:14:18;;;;;;;6.55;4.57;;;;;;;;;;5102430;28;20044;-67
2023/06/16 06:16:45;;;;;;;8.55;4.45;;;;;;;;;;5104284;28;20055;-66
2023/06/16 06:19:14;;;;;;;7.57;4.50;;;;;;;;;;5108775;28;20047;-66
2023/06/16 06:21:42;;;;;;;5.78;3.97;;;;;;;;;;5103501;28;20077;-67
2023/06/16 06:24:09;;;;;;;7.45;4.28;;;;;;;;;;5096562;28;20066;-66
2023/06/16 06:26:38;;;;;;;8.43;4.53;;;;;;;;;;5099960;28;20044;-66
2023/06/16 06:29:05;;;;;;;6.60;4.00;;;;;;;;;;5081394;28;20056;-67
2023/06/16 06:31:33;;;;;;;6.78;4.60;;;;;;;;;;5102160;28;20052;-67
2023/06/16 06:34:00;;;;;;;7.32;4.72;;;;;;;;;;5091661;28;20054;-67
2023/06/16 06:36:29;;;;;;;8.25;4.25;;;;;;;;;;5103477;28;20035;-66
2023/06/16 06:38:56;;;;;;;7.03;4.40;;;;;;;;;;5109284;28;20483;-67
2023/06/16 06:41:24;;;;;;;7.03;4.43;;;;;;;;;;5104968;28;20055;-66
2023/06/16 06:43:52;;;;;;;7.55;3.80;;;;;;;;;;5109418;28;20433;-66
2023/06/16 06:46:19;;;;;;;5.53;4.05;;;;;;;;;;5100861;28;20941;-66
2023/06/16 06:48:47;;;;;;;5.93;3.83;;;;;;;;;;5106388;28;20096;-66
2023/06/16 06:51:14;;;;;;;7.53;4.80;;;;;;;;;;5105565;28;20517;-67
2023/06/16 06:53:43;;;;;;;6.68;4.60;;;;;;;;;;5107677;28;20046;-67
2023/06/16 06:56:11;;;;;;;7.47;5.00;;;;;;;;;;5098676;28;20051;-67
2023/06/16 06:58:38;;;;;;;6.18;4.95;;;;;;;;;;5106940;28;20149;-67
2023/06/16 07:01:05;;;;;;;9.48;4.85;;;;;;;;;;5105467;28;20083;-66
2023/06/16 07:03:32;;;;;;;8.00;4.30;;;;;;;;;;5109124;28;20050;-70
2023/06/16 07:06:00;;;;;;;6.25;3.60;;;;;;;;;;5106774;28;20052;-71
2023/06/16 07:08:27;;;;;;;6.05;4.43;;;;;;;;;;5107521;28;20048;-65
2023/06/16 07:10:56;;;;;;;5.90;4.07;;;;;;;;;;5107446;28;20047;-69
2023/06/16 07:13:23;;;;;;;5.35;3.33;;;;;;;;;;5087072;28;20044;-68
2023/06/16 07:15:50;;;;;;;6.75;3.22;;;;;;;;;;5100170;28;20057;-67
2023/06/16 07:18:17;;;;;;;4.57;2.85;;;;;;;;;;5098008;28;20055;-68
2023/06/16 07:20:45;;;;;;;4.65;3.05;;;;;;;;;;5094805;28;20534;-68
2023/06/16 07:23:12;;;;;;;4.22;2.78;;;;;;;;;;5110228;27;20043;-67
2023/06/16 07:25:39;;;;;;;3.72;2.65;;;;;;;;;;5111169;28;20043;-68
2023/06/16 07:28:08;;;;;;;4.35;2.30;;;;;;;;;;5100212;28;20052;-68
2023/06/16 07:30:36;;;;;;;3.88;2.38;;;;;;;;;;5099026;28;20084;-68
2023/06/16 07:33:03;;;;;;;3.97;2.22;;;;;;;;;;5080659;28;20051;-68
2023/06/16 07:35:30;;;;;;;4.20;1.92;;;;;;;;;;5085190;28;20135;-67
2023/06/16 07:37:58;;;;;;;3.22;2.38;;;;;;;;;;5098782;28;20120;-67
2023/06/16 07:40:25;;;;;;;2.72;1.75;;;;;;;;;;5089430;28;20044;-68
2023/06/16 07:42:52;;;;;;;2.85;2.13;;;;;;;;;;5090823;28;20062;-68
2023/06/16 07:45:21;;;;;;;3.30;2.25;;;;;;;;;;5097815;28;20139;-68
2023/06/16 07:47:48;;;;;;;3.78;2.05;;;;;;;;;;5093821;28;20483;-69
2023/06/16 07:50:16;;;;;;;3.75;2.25;;;;;;;;;;5101236;28;21770;-68
2023/06/16 07:52:43;;;;;;;2.55;1.70;;;;;;;;;;5093840;28;20048;-69
2023/06/16 07:55:11;;;;;;;3.83;1.95;;;;;;;;;;5087601;28;20043;-68
2023/06/16 07:57:39;;;;;;;2.90;1.88;;;;;;;;;;5085419;28;20047;-69
2023/06/16 08:00:11;;;;;;;4.93;1.90;;;;;;;;;;5094715;28;20054;-68
2023/06/16 08:02:40;;;;;;;3.25;1.50;;;;;;;;;;5098036;28;20376;-69
2023/06/16 08:05:09;;;;;;;3.17;1.65;;;;;;;;;;5082095;28;20130;-70
2023/06/16 08:07:36;;;;;;;4.10;1.42;;;;;;;;;;5089432;28;20052;-69
2023/06/16 08:10:04;;;;;;;2.38;1.30;;;;;;;;;;5090741;28;20127;-68
2023/06/16 08:12:32;;;;;;;1.55;1.25;;;;;;;;;;5095970;28;20147;-69
2023/06/16 08:14:59;;;;;;;2.47;1.60;;;;;;;;;;5088852;28;20051;-69
2023/06/16 08:17:26;;;;;;;2.33;1.33;;;;;;;;;;5090984;28;20079;-69
2023/06/16 08:19:55;;;;;;;1.95;1.30;;;;;;;;;;5094564;28;20262;-69
2023/06/16 08:22:22;;;;;;;2.10;1.10;;;;;;;;;;5091899;28;20047;-69
2023/06/16 08:24:50;;;;;;;4.97;1.48;;;;;;;;;;5089109;28;20086;-69
2023/06/16 08:27:17;;;;;;;2.33;1.13;;;;;;;;;;5075945;28;20124;-75
2023/06/16 08:29:44;;;;;;;1.73;0.85;;;;;;;;;;5087293;28;20048;-71
2023/06/16 08:32:12;;;;;;;5.75;1.17;;;;;;;;;;5088237;28;20051;-70
2023/06/16 08:34:39;;;;;;;3.17;1.27;;;;;;;;;;5090602;28;20126;-71
2023/06/16 08:37:08;;;;;;;1.80;1.13;;;;;;;;;;5092107;28;20074;-70
2023/06/16 08:39:35;;;;;;;2.22;1.08;;;;;;;;;;5108474;28;20105;-73
2023/06/16 08:42:03;;;;;;;1.40;1.00;;;;;;;;;;5100010;28;20052;-72
2023/06/16 08:44:30;;;;;;;1.52;1.00;;;;;;;;;;5108902;27;20736;-71
2023/06/16 08:46:59;;;;;;;1.20;0.90;;;;;;;;;;5101679;28;20048;-71
2023/06/16 08:49:26;;;;;;;4.05;1.10;;;;;;;;;;5109260;28;20073;-72
2023/06/16 08:51:53;;;;;;;2.28;1.20;;;;;;;;;;5099851;28;20044;-71
2023/06/16 08:54:25;;;;;;;2.60;1.13;;;;;;;;;;5107521;28;20486;-72
2023/06/16 08:56:52;;;;;;;1.25;1.10;;;;;;;;;;5105877;28;20052;-73
2023/06/16 08:59:20;;;;;;;3.85;1.20;;;;;;;;;;5109631;28;20054;-73
2023/06/16 09:01:49;;;;;;;2.08;1.10;;;;;;;;;;5110821;28;20040;-73
2023/06/16 09:04:16;;;;;;;1.95;1.20;;;;;;;;;;5109226;28;20490;-70
2023/06/16 09:06:47;;;;;;;2.15;1.08;;;;;;;;;;5112349;27;20047;-72
2023/06/16 09:09:16;;;;;;;1.73;1.10;;;;;;;;;;5101253;28;20047;-70
2023/06/16 09:11:44;;;;;;;2.03;1.20;;;;;;;;;;5107848;28;20079;-71
2023/06/16 09:14:13;;;;;;;2.25;1.40;;;;;;;;;;5102883;28;20105;-73
2023/06/16 09:16:41;;;;;;;1.70;1.27;;;;;;;;;;5107380;28;20047;-69
2023/06/16 09:19:09;;;;;;;5.10;1.30;;;;;;;;;;5109464;28;20499;-66
2023/06/16 09:21:37;;;;;;;3.08;1.50;;;;;;;;;;5100482;28;20056;-73
2023/06/16 09:24:05;;;;;;;2.50;1.40;;;;;;;;;;5095545;28;20043;-74
2023/06/16 09:26:35;;;;;;;1.80;1.20;;;;;;;;;;5108953;28;20044;-68
2023/06/16 09:29:21;;;;;;;2.15;1.33;;;;;;;;;;5108622;28;20058;-66
2023/06/16 09:31:49;;;;;;;2.92;1.27;;;;;;;;;;5109970;28;20636;-65
2023/06/16 09:36:46;;;;;;;6.50;1.30;;;;;;;;;;5061375;28;20079;-74
2023/06/16 09:39:24;;;;;;;2.65;1.40;;;;;;;;;;5065089;28;20052;-74
2023/06/16 09:41:52;;;;;;;2.25;1.40;;;;;;;;;;5058321;28;20055;-68
2023/06/16 09:44:20;;;;;;;3.03;1.50;;;;;;;;;;5042194;28;20064;-72
2023/06/16 09:46:49;;;;;;;5.85;1.45;;;;;;;;;;5065053;28;20044;-72
2023/06/16 09:49:23;;;;;;;3.13;1.70;;;;;;;;;;5061445;28;20044;-73
2023/06/16 09:51:54;;;;;;;3.50;1.55;;;;;;;;;;5061152;28;20052;-72
2023/06/16 09:54:22;;;;;;;3.10;1.60;;;;;;;;;;5055128;28;20044;-73
2023/06/16 09:56:49;;;;;;;1.58;1.30;;;;;;;;;;5058908;28;20471;-73
2023/06/16 09:59:18;;;;;;;2.42;1.60;;;;;;;;;;5047659;28;20083;-73
2023/06/16 10:01:48;;;;;;;1.77;1.40;;;;;;;;;;5046990;28;20080;-74
2023/06/16 10:04:16;;;;;;;2.33;1.50;;;;;;;;;;5065732;28;20040;-74
2023/06/16 10:06:48;;;;;;;2.60;1.50;;;;;;;;;;5056726;28;20040;-73
2023/06/16 10:09:18;;;;;;;2.05;1.40;;;;;;;;;;5042104;28;20052;-71
2023/06/16 10:11:48;;;;;;;3.42;1.48;;;;;;;;;;5067889;28;20090;-67
2023/06/16 10:14:16;;;;;;;3.20;1.60;;;;;;;;;;5046879;28;20048;-68
2023/06/16 10:16:44;;;;;;;2.70;1.48;;;;;;;;;;5059756;28;20063;-68
2023/06/16 10:19:14;;;;;;;2.55;1.60;;;;;;;;;;5061746;28;20462;-68
2023/06/16 10:21:42;;;;;;;4.30;1.42;;;;;;;;;;5061317;28;20051;-68
2023/06/16 10:24:10;;;;;;;2.30;1.60;;;;;;;;;;5063248;28;20094;-68
2023/06/16 10:26:37;;;;;;;3.88;1.77;;;;;;;;;;5059622;28;20041;-66
2023/06/16 10:29:05;;;;;;;2.22;1.50;;;;;;;;;;5060913;28;20063;-67
2023/06/16 10:31:33;;;;;;;1.65;1.23;;;;;;;;;;5055658;28;20049;-67
2023/06/16 10:34:00;;;;;;;2.17;1.50;;;;;;;;;;5067123;28;20051;-67
2023/06/16 10:36:31;;;;;;;3.97;1.30;;;;;;;;;;5056910;28;20071;-67
2023/06/16 10:39:00;;;;;;;2.08;1.30;;;;;;;;;;5057312;28;20044;-67
2023/06/16 10:41:29;;;;;;;1.60;1.33;;;;;;;;;;5037819;28;20048;-68
2023/06/16 10:43:57;;;;;;;1.70;1.13;;;;;;;;;;5039997;28;20052;-68
2023/06/16 10:46:25;;;;;;;2.75;1.50;;;;;;;;;;5040311;28;20439;-68
2023/06/16 10:48:57;;;;;;;1.95;1.10;;;;;;;;;;5043932;28;20053;-68
2023/06/16 10:51:45;;;;;;;2.20;1.30;;;;;;;;;;5035028;28;20135;-67
2023/06/16 10:54:14;;;;;;;1.95;1.02;;;;;;;;;;5048860;28;20044;-67
2023/06/16 10:56:59;;;;;;;2.38;1.48;;;;;;;;;;5033162;28;20053;-68
2023/06/16 10:59:27;;;;;;;1.88;1.30;;;;;;;;;;5039234;28;20048;-69
2023/06/16 11:01:57;;;;;;;1.40;1.30;;;;;;;;;;5017255;28;20080;-67
2023/06/16 11:04:24;;;;;;;1.92;1.23;;;;;;;;;;5044361;28;20053;-68
2023/06/16 11:07:11;;;;;;;1.58;1.20;;;;;;;;;;5022497;28;20053;-68
2023/06/16 11:09:38;;;;;;;3.88;1.20;;;;;;;;;;5044727;28;20087;-68
2023/06/16 11:12:07;;;;;;;1.58;1.08;;;;;;;;;;5047350;28;20055;-69
2023/06/16 11:14:35;;;;;;;3.17;1.20;;;;;;;;;;5037206;28;20388;-69
2023/06/16 11:17:04;;;;;;;2.40;1.35;;;;;;;;;;5026443;28;20107;-67
2023/06/16 11:19:31;;;;;;;2.50;1.30;;;;;;;;;;5037646;28;20595;-68
2023/06/16 11:22:02;;;;;;;2.00;1.33;;;;;;;;;;5036789;28;20050;-68
2023/06/16 11:24:35;;;;;;;1.58;1.20;;;;;;;;;;5031220;28;20046;-68
2023/06/16 11:27:03;;;;;;;2.08;1.30;;;;;;;;;;5050151;28;20131;-67
2023/06/16 11:29:31;;;;;;;3.40;1.40;;;;;;;;;;5047525;28;20045;-68
2023/06/16 11:31:59;;;;;;;1.70;1.40;;;;;;;;;;5037266;28;20057;-68
2023/06/16 11:34:26;;;;;;;2.85;1.70;;;;;;;;;;5017468;28;20135;-68
2023/06/16 11:36:54;;;;;;;1.30;1.20;;;;;;;;;;5040995;28;20095;-68
2023/06/16 11:39:21;;;;;;;1.70;1.30;;;;;;;;;;5045998;28;20052;-68
2023/06/16 11:41:56;;;;;;;1.83;1.45;;;;;;;;;;5054245;28;20056;-68
2023/06/16 11:44:23;;;;;;;2.70;1.60;;;;;;;;;;5043532;28;20057;-68
2023/06/16 11:46:50;;;;;;;3.05;1.40;;;;;;;;;;5042442;28;20156;-68
2023/06/16 11:49:18;;;;;;;1.88;1.35;;;;;;;;;;5041385;28;20049;-68
2023/06/16 11:51:45;;;;;;;1.40;1.23;;;;;;;;;;5030744;28;20047;-68
2023/06/16 11:54:13;;;;;;;2.50;1.50;;;;;;;;;;5039683;28;20055;-68
2023/06/16 11:56:40;;;;;;;2.10;1.52;;;;;;;;;;5038901;28;20056;-68
2023/06/16 11:59:12;;;;;;;1.88;1.40;;;;;;;;;;5044766;28;20523;-69
2023/06/16 12:01:40;;;;;;;;;;;;;;;;;;5027242;28;20515;-68
2023/06/16 12:04:07;;;;;;;3.58;1.50;;;;;;;;;;5054435;28;20347;-68
2023/06/16 12:06:35;;;;;;;2.88;1.60;;;;;;;;;;5024175;28;20065;-69
2023/06/16 12:09:03;;;;;;;2.35;1.30;;;;;;;;;;5047615;28;20064;-69
2023/06/16 12:11:32;;;;;;;2.03;1.60;;;;;;;;;;5048945;28;20150;-68
2023/06/16 12:14:01;;;;;;;1.40;1.30;;;;;;;;;;5052285;28;20053;-69
2023/06/16 12:16:30;;;;;;;5.13;1.40;;;;;;;;;;5042677;28;20407;-68
2023/06/16 12:18:58;;;;;;;1.73;1.50;;;;;;;;;;5036261;28;20513;-68
2023/06/16 12:21:26;;;;;;;1.65;1.40;;;;;;;;;;5047732;28;20057;-68
2023/06/16 12:23:54;;;;;;;2.58;1.70;;;;;;;;;;5036544;28;20678;-68
2023/06/16 12:26:26;;;;;;;1.90;1.33;;;;;;;;;;5035935;28;20080;-69
2023/06/16 12:28:54;;;;;;;2.58;1.65;;;;;;;;;;5044605;28;20070;-69
2023/06/16 12:31:21;;;;;;;2.67;1.73;;;;;;;;;;5049836;28;20088;-69
2023/06/16 12:33:52;;;;;;;2.10;1.60;;;;;;;;;;5045887;28;20060;-69
2023/06/16 12:36:20;;;;;;;1.80;1.60;;;;;;;;;;5037408;28;20526;-69
2023/06/16 12:38:47;;;;;;;4.82;1.48;;;;;;;;;;5048231;28;20133;-68
2023/06/16 12:41:15;;;;;;;1.52;1.42;;;;;;;;;;5049273;28;20052;-69
2023/06/16 12:43:47;;;;;;;1.88;1.73;;;;;;;;;;5044698;28;20060;-68
2023/06/16 12:46:14;;;;;;;3.00;1.75;;;;;;;;;;5046385;28;20132;-68
2023/06/16 12:48:41;;;;;;;5.32;1.95;;;;;;;;;;5043872;28;20052;-70
2023/06/16 12:51:10;;;;;;;1.80;1.60;;;;;;;;;;5045193;28;20056;-70
2023/06/16 12:53:41;;;;;;;1.75;1.50;;;;;;;;;;5044880;28;20052;-71
2023/06/16 12:56:09;;;;;;;2.15;1.58;;;;;;;;;;5035098;28;20512;-70
2023/06/16 12:58:38;;;;;;;1.75;1.65;;;;;;;;;;5039906;28;20347;-71
2023/06/16 13:01:05;;;;;;;7.10;1.85;;;;;;;;;;5023152;28;20530;-70
2023/06/16 13:03:32;;;;;;;1.92;1.73;;;;;;;;;;5043769;28;20075;-71
2023/06/16 13:05:59;;;;;;;2.03;1.80;;;;;;;;;;5038900;28;20049;-71
2023/06/16 13:08:28;;;;;;;3.38;1.48;;;;;;;;;;5048333;28;20465;-70
2023/06/16 13:10:55;;;;;;;2.28;1.70;;;;;;;;;;5047843;28;20407;-70
2023/06/16 13:13:22;;;;;;;2.22;1.75;;;;;;;;;;5046618;28;20055;-70
2023/06/16 13:15:50;;;;;;;3.05;1.60;;;;;;;;;;5048120;28;20067;-71
2023/06/16 13:18:17;;;;;;;2.85;1.80;;;;;;;;;;5040887;28;20055;-70
2023/06/16 13:20:45;;;;;;;1.63;1.52;;;;;;;;;;5036924;28;20471;-70
2023/06/16 13:23:12;;;;;;;1.90;1.70;;;;;;;;;;5027547;28;20053;-70
2023/06/16 13:25:41;;;;;;;1.83;1.60;;;;;;;;;;5045014;28;20371;-70
2023/06/16 13:28:08;;;;;;;2.92;1.83;;;;;;;;;;5033761;28;20059;-70
2023/06/16 13:30:36;;;;;;;2.17;1.67;;;;;;;;;;5040555;28;20647;-70
2023/06/16 13:33:03;;;;;;;2.78;1.60;;;;;;;;;;5036319;28;20457;-70
2023/06/16 13:35:31;;;;;;;1.70;1.60;;;;;;;;;;5037247;28;20061;-71
2023/06/16 13:37:58;;;;;;;1.70;1.60;;;;;;;;;;5039691;28;20475;-71
2023/06/16 13:40:26;;;;;;;1.92;1.42;;;;;;;;;;5038109;28;20045;-71
2023/06/16 13:42:54;;;;;;;2.10;1.73;;;;;;;;;;5045411;28;20059;-71
2023/06/16 13:45:22;;;;;;;3.55;1.60;;;;;;;;;;5043018;28;20477;-70
2023/06/16 13:47:49;;;;;;;2.15;1.90;;;;;;;;;;5030650;28;20046;-71
2023/06/16 13:50:16;;;;;;;2.03;1.60;;;;;;;;;;5032111;28;20048;-72
2023/06/16 13:52:44;;;;;;;4.30;1.63;;;;;;;;;;5040725;28;20047;-71
2023/06/16 13:55:11;;;;;;;2.05;1.63;;;;;;;;;;5033919;28;20136;-71
2023/06/16 13:57:38;;;;;;;2.90;1.70;;;;;;;;;;5037250;28;20049;-71
2023/06/16 14:00:09;;;;;;;2.03;1.63;;;;;;;;;;5042853;28;20048;-71
2023/06/16 14:02:36;;;;;;;2.42;1.92;;;;;;;;;;5035543;28;20044;-70
2023/06/16 14:05:03;;;;;;;2.25;1.83;;;;;;;;;;5037908;28;20080;-70
2023/06/16 14:07:32;;;;;;;2.03;1.70;;;;;;;;;;5037572;28;20049;-71
2023/06/16 14:09:59;;;;;;;1.92;1.73;;;;;;;;;;5013121;28;20057;-71
2023/06/16 14:12:26;;;;;;;2.08;1.88;;;;;;;;;;5044488;28;20071;-70
2023/06/16 14:14:53;;;;;;;2.05;1.75;;;;;;;;;;5046122;28;20079;-71
2023/06/16 14:17:22;;;;;;;3.50;1.85;;;;;;;;;;5043736;28;20044;-71
2023/06/16 14:19:49;;;;;;;2.30;1.90;;;;;;;;;;5047389;28;20050;-71
2023/06/16 14:22:17;;;;;;;3.63;1.75;;;;;;;;;;5048954;28;20094;-70
2023/06/16 14:24:45;;;;;;;1.98;1.80;;;;;;;;;;5019523;28;20091;-70
2023/06/16 14:27:13;;;;;;;2.35;2.10;;;;;;;;;;5034855;28;20049;-72
2023/06/16 14:29:40;;;;;;;3.13;2.10;;;;;;;;;;5043050;28;20127;-71
2023/06/16 14:32:08;;;;;;;2.88;2.00;;;;;;;;;;5042924;28;20124;-71
2023/06/16 14:34:36;;;;;;;2.30;2.10;;;;;;;;;;5040006;28;20045;-72
2023/06/16 14:37:04;;;;;;;2.20;2.00;;;;;;;;;;5037826;28;20061;-71
2023/06/16 14:39:32;;;;;;;3.47;1.80;;;;;;;;;;5037364;28;20057;-71
2023/06/16 14:41:59;;;;;;;2.10;1.90;;;;;;;;;;5034781;28;20045;-71
2023/06/16 14:44:26;;;;;;;2.00;1.80;;;;;;;;;;5042742;28;20045;-72
2023/06/16 14:46:54;;;;;;;1.92;1.73;;;;;;;;;;5036079;28;20515;-71
2023/06/16 14:49:21;;;;;;;2.13;1.65;;;;;;;;;;5044828;28;20045;-71
2023/06/16 14:51:49;;;;;;;2.40;1.83;;;;;;;;;;5038280;28;20052;-71